sensor_id;sensor_type;location;lat;lon;timestamp;P1;durP1;ratioP1;P2;durP2;ratioP2
23519;SDS011;11936;50.820;4.336;2023-02-01T00:02:23;24.20;;;11.57;;
23519;SDS011;11936;50.820;4.336;2023-02-01T00:04:49;29.40;;;11.38;;
23519;SDS011;11936;50.820;4.336;2023-02-01T00:07:14;23.45;;;10.93;;
23519;SDS011;11936;50.820;4.336;2023-02-01T00:09:40;28.33;;;11.82;;
23519;SDS011;11936;50.820;4.336;2023-02-01T00:12:05;27.13;;;11.10;;
23519;SDS011;11936;50.820;4.336;2023-02-01T00:14:31;26.27;;;10.73;;
23519;SDS011;11936;50.820;4.336;2023-02-01T00:17:03;22.45;;;10.43;;
23519;SDS011;11936;50.820;4.336;2023-02-01T00:19:32;26.70;;;10.80;;
23519;SDS011;11936;50.820;4.336;2023-02-01T00:21:58;24.95;;;10.80;;
23519;SDS011;11936;50.820;4.336;2023-02-01T00:24:23;25.75;;;10.75;;
23519;SDS011;11936;50.820;4.336;2023-02-01T00:26:49;24.98;;;9.85;;
23519;SDS011;11936;50.820;4.336;2023-02-01T00:29:16;28.73;;;10.23;;
23519;SDS011;11936;50.820;4.336;2023-02-01T00:31:43;27.30;;;10.75;;
23519;SDS011;11936;50.820;4.336;2023-02-01T00:34:10;33.05;;;10.43;;
23519;SDS011;11936;50.820;4.336;2023-02-01T00:36:38;27.48;;;10.35;;
23519;SDS011;11936;50.820;4.336;2023-02-01T00:39:04;24.98;;;9.75;;
23519;SDS011;11936;50.820;4.336;2023-02-01T00:41:30;34.33;;;10.38;;
23519;SDS011;11936;50.820;4.336;2023-02-01T00:43:55;28.23;;;10.07;;
23519;SDS011;11936;50.820;4.336;2023-02-01T00:46:21;27.00;;;10.43;;
23519;SDS011;11936;50.820;4.336;2023-02-01T00:48:47;23.23;;;8.93;;
23519;SDS011;11936;50.820;4.336;2023-02-01T00:51:15;22.85;;;8.90;;
23519;SDS011;11936;50.820;4.336;2023-02-01T00:53:42;20.67;;;8.38;;
23519;SDS011;11936;50.820;4.336;2023-02-01T00:56:08;22.60;;;8.32;;
23519;SDS011;11936;50.820;4.336;2023-02-01T00:58:33;20.98;;;8.20;;
23519;SDS011;11936;50.820;4.336;2023-02-01T01:01:03;26.65;;;8.00;;
23519;SDS011;11936;50.820;4.336;2023-02-01T01:03:29;28.40;;;8.52;;
23519;SDS011;11936;50.820;4.336;2023-02-01T01:05:58;21.40;;;8.93;;
23519;SDS011;11936;50.820;4.336;2023-02-01T01:08:25;25.10;;;7.93;;
23519;SDS011;11936;50.820;4.336;2023-02-01T01:10:51;13.93;;;6.25;;
23519;SDS011;11936;50.820;4.336;2023-02-01T01:13:16;23.33;;;7.72;;
23519;SDS011;11936;50.820;4.336;2023-02-01T01:15:42;27.00;;;7.75;;
23519;SDS011;11936;50.820;4.336;2023-02-01T01:18:08;25.02;;;7.38;;
23519;SDS011;11936;50.820;4.336;2023-02-01T01:20:34;18.45;;;6.72;;
23519;SDS011;11936;50.820;4.336;2023-02-01T01:23:01;27.42;;;6.28;;
23519;SDS011;11936;50.820;4.336;2023-02-01T01:25:27;20.60;;;6.57;;
23519;SDS011;11936;50.820;4.336;2023-02-01T01:27:52;23.15;;;6.72;;
23519;SDS011;11936;50.820;4.336;2023-02-01T01:30:18;22.27;;;5.85;;
23519;SDS011;11936;50.820;4.336;2023-02-01T01:32:44;26.60;;;5.93;;
23519;SDS011;11936;50.820;4.336;2023-02-01T01:35:09;29.25;;;5.88;;
23519;SDS011;11936;50.820;4.336;2023-02-01T01:37:35;25.77;;;6.68;;
23519;SDS011;11936;50.820;4.336;2023-02-01T01:40:04;24.95;;;5.47;;
23519;SDS011;11936;50.820;4.336;2023-02-01T01:42:30;23.27;;;4.47;;
23519;SDS011;11936;50.820;4.336;2023-02-01T01:45:03;21.90;;;5.28;;
23519;SDS011;11936;50.820;4.336;2023-02-01T01:47:43;18.23;;;4.50;;
23519;SDS011;11936;50.820;4.336;2023-02-01T01:50:13;22.80;;;4.72;;
23519;SDS011;11936;50.820;4.336;2023-02-01T01:52:42;20.80;;;4.43;;
23519;SDS011;11936;50.820;4.336;2023-02-01T01:55:11;25.23;;;5.32;;
23519;SDS011;11936;50.820;4.336;2023-02-01T01:57:39;22.13;;;5.00;;
23519;SDS011;11936;50.820;4.336;2023-02-01T02:00:13;21.45;;;4.60;;
23519;SDS011;11936;50.820;4.336;2023-02-01T02:02:44;19.17;;;4.57;;
23519;SDS011;11936;50.820;4.336;2023-02-01T02:05:12;17.42;;;4.32;;
23519;SDS011;11936;50.820;4.336;2023-02-01T02:07:42;20.38;;;4.88;;
23519;SDS011;11936;50.820;4.336;2023-02-01T02:10:11;16.10;;;4.20;;
23519;SDS011;11936;50.820;4.336;2023-02-01T02:12:42;19.00;;;4.63;;
23519;SDS011;11936;50.820;4.336;2023-02-01T02:15:10;23.33;;;5.00;;
23519;SDS011;11936;50.820;4.336;2023-02-01T02:26:27;26.77;;;4.85;;
23519;SDS011;11936;50.820;4.336;2023-02-01T02:34:55;16.45;;;4.03;;
23519;SDS011;11936;50.820;4.336;2023-02-01T02:37:37;18.27;;;4.93;;
23519;SDS011;11936;50.820;4.336;2023-02-01T02:42:38;18.85;;;4.22;;
23519;SDS011;11936;50.820;4.336;2023-02-01T02:48:30;19.25;;;4.57;;
23519;SDS011;11936;50.820;4.336;2023-02-01T02:51:23;19.02;;;4.78;;
23519;SDS011;11936;50.820;4.336;2023-02-01T02:54:08;20.60;;;4.57;;
23519;SDS011;11936;50.820;4.336;2023-02-01T02:59:41;23.42;;;4.82;;
23519;SDS011;11936;50.820;4.336;2023-02-01T03:02:28;17.98;;;4.50;;
23519;SDS011;11936;50.820;4.336;2023-02-01T03:05:13;21.23;;;4.40;;
23519;SDS011;11936;50.820;4.336;2023-02-01T03:13:21;19.08;;;4.68;;
23519;SDS011;11936;50.820;4.336;2023-02-01T03:18:55;18.92;;;4.50;;
23519;SDS011;11936;50.820;4.336;2023-02-01T03:21:29;27.10;;;4.47;;
23519;SDS011;11936;50.820;4.336;2023-02-01T03:24:12;19.52;;;3.83;;
23519;SDS011;11936;50.820;4.336;2023-02-01T03:26:45;19.17;;;4.93;;
23519;SDS011;11936;50.820;4.336;2023-02-01T03:29:18;19.73;;;5.93;;
23519;SDS011;11936;50.820;4.336;2023-02-01T03:31:51;19.90;;;5.10;;
23519;SDS011;11936;50.820;4.336;2023-02-01T03:34:16;30.50;;;5.15;;
23519;SDS011;11936;50.820;4.336;2023-02-01T03:36:50;16.95;;;3.55;;
23519;SDS011;11936;50.820;4.336;2023-02-01T03:42:13;21.15;;;4.38;;
23519;SDS011;11936;50.820;4.336;2023-02-01T03:44:47;24.00;;;4.80;;
23519;SDS011;11936;50.820;4.336;2023-02-01T03:47:23;25.33;;;4.60;;
23519;SDS011;11936;50.820;4.336;2023-02-01T03:49:55;17.30;;;4.68;;
23519;SDS011;11936;50.820;4.336;2023-02-01T03:52:33;21.50;;;4.72;;
23519;SDS011;11936;50.820;4.336;2023-02-01T03:55:07;16.55;;;4.70;;
23519;SDS011;11936;50.820;4.336;2023-02-01T03:57:36;20.30;;;4.18;;
23519;SDS011;11936;50.820;4.336;2023-02-01T04:00:07;15.02;;;4.43;;
23519;SDS011;11936;50.820;4.336;2023-02-01T04:02:43;16.77;;;4.72;;
23519;SDS011;11936;50.820;4.336;2023-02-01T04:05:10;22.15;;;4.55;;
23519;SDS011;11936;50.820;4.336;2023-02-01T04:07:36;15.75;;;4.35;;
23519;SDS011;11936;50.820;4.336;2023-02-01T04:10:02;15.15;;;4.47;;
23519;SDS011;11936;50.820;4.336;2023-02-01T04:12:28;21.58;;;4.82;;
23519;SDS011;11936;50.820;4.336;2023-02-01T04:14:54;19.52;;;4.55;;
23519;SDS011;11936;50.820;4.336;2023-02-01T04:17:20;20.67;;;4.57;;
23519;SDS011;11936;50.820;4.336;2023-02-01T04:19:46;22.73;;;5.82;;
23519;SDS011;11936;50.820;4.336;2023-02-01T04:22:11;19.90;;;4.72;;
23519;SDS011;11936;50.820;4.336;2023-02-01T04:24:37;24.75;;;4.82;;
23519;SDS011;11936;50.820;4.336;2023-02-01T04:27:03;18.75;;;5.13;;
23519;SDS011;11936;50.820;4.336;2023-02-01T04:29:28;17.38;;;4.57;;
23519;SDS011;11936;50.820;4.336;2023-02-01T04:31:54;17.70;;;4.65;;
23519;SDS011;11936;50.820;4.336;2023-02-01T04:34:20;23.75;;;5.07;;
23519;SDS011;11936;50.820;4.336;2023-02-01T04:36:47;15.68;;;4.57;;
23519;SDS011;11936;50.820;4.336;2023-02-01T04:39:13;23.95;;;5.25;;
23519;SDS011;11936;50.820;4.336;2023-02-01T04:41:39;21.52;;;5.03;;
23519;SDS011;11936;50.820;4.336;2023-02-01T04:44:08;22.87;;;4.57;;
23519;SDS011;11936;50.820;4.336;2023-02-01T04:46:39;25.33;;;4.47;;
23519;SDS011;11936;50.820;4.336;2023-02-01T04:49:05;24.30;;;4.75;;
23519;SDS011;11936;50.820;4.336;2023-02-01T04:51:30;26.85;;;5.65;;
23519;SDS011;11936;50.820;4.336;2023-02-01T04:53:57;20.63;;;4.63;;
23519;SDS011;11936;50.820;4.336;2023-02-01T04:56:22;25.60;;;5.30;;
23519;SDS011;11936;50.820;4.336;2023-02-01T04:58:48;28.20;;;5.10;;
23519;SDS011;11936;50.820;4.336;2023-02-01T05:01:14;22.77;;;5.32;;
23519;SDS011;11936;50.820;4.336;2023-02-01T05:03:39;18.58;;;4.32;;
23519;SDS011;11936;50.820;4.336;2023-02-01T05:06:05;15.65;;;4.47;;
23519;SDS011;11936;50.820;4.336;2023-02-01T05:08:31;22.58;;;5.15;;
23519;SDS011;11936;50.820;4.336;2023-02-01T05:10:57;31.70;;;5.28;;
23519;SDS011;11936;50.820;4.336;2023-02-01T05:13:24;26.23;;;5.57;;
23519;SDS011;11936;50.820;4.336;2023-02-01T05:16:08;20.13;;;4.57;;
23519;SDS011;11936;50.820;4.336;2023-02-01T05:18:34;22.83;;;4.70;;
23519;SDS011;11936;50.820;4.336;2023-02-01T05:20:59;22.63;;;4.30;;
23519;SDS011;11936;50.820;4.336;2023-02-01T05:23:25;21.35;;;4.47;;
23519;SDS011;11936;50.820;4.336;2023-02-01T05:25:51;20.25;;;4.53;;
23519;SDS011;11936;50.820;4.336;2023-02-01T05:28:17;23.10;;;4.15;;
23519;SDS011;11936;50.820;4.336;2023-02-01T05:30:42;18.98;;;4.65;;
23519;SDS011;11936;50.820;4.336;2023-02-01T05:33:08;21.38;;;4.95;;
23519;SDS011;11936;50.820;4.336;2023-02-01T05:35:33;24.10;;;4.65;;
23519;SDS011;11936;50.820;4.336;2023-02-01T05:37:59;17.52;;;4.35;;
23519;SDS011;11936;50.820;4.336;2023-02-01T05:40:25;26.85;;;4.80;;
23519;SDS011;11936;50.820;4.336;2023-02-01T05:42:50;18.05;;;4.90;;
23519;SDS011;11936;50.820;4.336;2023-02-01T05:45:16;18.65;;;4.78;;
23519;SDS011;11936;50.820;4.336;2023-02-01T05:47:42;16.67;;;4.50;;
23519;SDS011;11936;50.820;4.336;2023-02-01T05:50:07;19.70;;;4.63;;
23519;SDS011;11936;50.820;4.336;2023-02-01T05:52:33;17.92;;;4.88;;
23519;SDS011;11936;50.820;4.336;2023-02-01T05:54:59;20.80;;;4.47;;
23519;SDS011;11936;50.820;4.336;2023-02-01T05:57:24;23.00;;;4.90;;
23519;SDS011;11936;50.820;4.336;2023-02-01T05:59:50;19.15;;;4.53;;
23519;SDS011;11936;50.820;4.336;2023-02-01T06:02:15;22.75;;;5.05;;
23519;SDS011;11936;50.820;4.336;2023-02-01T06:04:41;25.02;;;5.13;;
23519;SDS011;11936;50.820;4.336;2023-02-01T06:07:07;19.92;;;5.15;;
23519;SDS011;11936;50.820;4.336;2023-02-01T06:09:35;15.80;;;4.13;;
23519;SDS011;11936;50.820;4.336;2023-02-01T06:12:02;23.52;;;5.32;;
23519;SDS011;11936;50.820;4.336;2023-02-01T06:14:29;24.67;;;4.80;;
23519;SDS011;11936;50.820;4.336;2023-02-01T06:16:55;17.67;;;4.80;;
23519;SDS011;11936;50.820;4.336;2023-02-01T06:19:21;17.88;;;5.03;;
23519;SDS011;11936;50.820;4.336;2023-02-01T06:21:47;19.10;;;4.10;;
23519;SDS011;11936;50.820;4.336;2023-02-01T06:24:13;19.17;;;4.30;;
23519;SDS011;11936;50.820;4.336;2023-02-01T06:26:39;19.92;;;4.38;;
23519;SDS011;11936;50.820;4.336;2023-02-01T06:29:09;21.95;;;4.32;;
23519;SDS011;11936;50.820;4.336;2023-02-01T06:31:35;27.67;;;5.33;;
23519;SDS011;11936;50.820;4.336;2023-02-01T06:34:00;20.23;;;4.40;;
23519;SDS011;11936;50.820;4.336;2023-02-01T06:36:27;17.88;;;5.50;;
23519;SDS011;11936;50.820;4.336;2023-02-01T06:38:53;28.52;;;5.50;;
23519;SDS011;11936;50.820;4.336;2023-02-01T06:41:21;28.63;;;4.97;;
23519;SDS011;11936;50.820;4.336;2023-02-01T06:43:47;18.58;;;3.90;;
23519;SDS011;11936;50.820;4.336;2023-02-01T06:46:14;25.90;;;5.28;;
23519;SDS011;11936;50.820;4.336;2023-02-01T06:48:40;28.85;;;5.25;;
23519;SDS011;11936;50.820;4.336;2023-02-01T06:51:06;18.23;;;4.90;;
23519;SDS011;11936;50.820;4.336;2023-02-01T06:53:43;30.73;;;5.78;;
23519;SDS011;11936;50.820;4.336;2023-02-01T06:56:08;27.75;;;4.38;;
23519;SDS011;11936;50.820;4.336;2023-02-01T06:58:34;30.67;;;6.18;;
23519;SDS011;11936;50.820;4.336;2023-02-01T07:01:04;20.98;;;4.60;;
23519;SDS011;11936;50.820;4.336;2023-02-01T07:03:31;24.48;;;5.05;;
23519;SDS011;11936;50.820;4.336;2023-02-01T07:05:57;25.48;;;4.82;;
23519;SDS011;11936;50.820;4.336;2023-02-01T07:10:54;21.55;;;5.13;;
23519;SDS011;11936;50.820;4.336;2023-02-01T07:13:20;16.98;;;4.60;;
23519;SDS011;11936;50.820;4.336;2023-02-01T07:15:45;26.73;;;6.35;;
23519;SDS011;11936;50.820;4.336;2023-02-01T07:18:14;15.90;;;4.50;;
23519;SDS011;11936;50.820;4.336;2023-02-01T07:20:40;20.08;;;5.05;;
23519;SDS011;11936;50.820;4.336;2023-02-01T07:23:10;26.13;;;5.60;;
23519;SDS011;11936;50.820;4.336;2023-02-01T07:25:38;27.60;;;5.97;;
23519;SDS011;11936;50.820;4.336;2023-02-01T07:28:04;22.15;;;5.20;;
23519;SDS011;11936;50.820;4.336;2023-02-01T07:30:30;25.48;;;5.20;;
23519;SDS011;11936;50.820;4.336;2023-02-01T07:32:55;22.65;;;5.32;;
23519;SDS011;11936;50.820;4.336;2023-02-01T07:35:24;23.15;;;5.13;;
23519;SDS011;11936;50.820;4.336;2023-02-01T07:37:49;21.50;;;4.65;;
23519;SDS011;11936;50.820;4.336;2023-02-01T07:40:15;31.13;;;6.50;;
23519;SDS011;11936;50.820;4.336;2023-02-01T07:42:41;28.42;;;5.25;;
23519;SDS011;11936;50.820;4.336;2023-02-01T07:45:07;18.77;;;5.40;;
23519;SDS011;11936;50.820;4.336;2023-02-01T07:47:32;21.77;;;5.63;;
23519;SDS011;11936;50.820;4.336;2023-02-01T07:49:58;22.80;;;5.55;;
23519;SDS011;11936;50.820;4.336;2023-02-01T07:52:23;35.67;;;6.18;;
23519;SDS011;11936;50.820;4.336;2023-02-01T07:54:52;18.75;;;5.38;;
23519;SDS011;11936;50.820;4.336;2023-02-01T07:57:17;20.65;;;4.43;;
23519;SDS011;11936;50.820;4.336;2023-02-01T07:59:44;28.13;;;5.72;;
23519;SDS011;11936;50.820;4.336;2023-02-01T08:02:28;22.42;;;4.70;;
23519;SDS011;11936;50.820;4.336;2023-02-01T08:04:54;25.30;;;4.95;;
23519;SDS011;11936;50.820;4.336;2023-02-01T08:07:19;30.80;;;5.07;;
23519;SDS011;11936;50.820;4.336;2023-02-01T08:09:45;17.95;;;4.45;;
23519;SDS011;11936;50.820;4.336;2023-02-01T08:12:11;22.33;;;5.75;;
23519;SDS011;11936;50.820;4.336;2023-02-01T08:14:36;26.33;;;5.53;;
23519;SDS011;11936;50.820;4.336;2023-02-01T08:17:04;22.98;;;5.70;;
23519;SDS011;11936;50.820;4.336;2023-02-01T08:19:30;29.75;;;4.65;;
23519;SDS011;11936;50.820;4.336;2023-02-01T08:21:56;25.88;;;4.72;;
23519;SDS011;11936;50.820;4.336;2023-02-01T08:24:21;18.73;;;4.65;;
23519;SDS011;11936;50.820;4.336;2023-02-01T08:26:47;26.67;;;4.82;;
23519;SDS011;11936;50.820;4.336;2023-02-01T08:29:12;21.17;;;5.15;;
23519;SDS011;11936;50.820;4.336;2023-02-01T08:31:38;24.05;;;4.68;;
23519;SDS011;11936;50.820;4.336;2023-02-01T08:34:07;26.27;;;5.85;;
23519;SDS011;11936;50.820;4.336;2023-02-01T08:36:33;23.73;;;5.90;;
23519;SDS011;11936;50.820;4.336;2023-02-01T08:38:59;28.80;;;4.85;;
23519;SDS011;11936;50.820;4.336;2023-02-01T08:41:27;23.38;;;5.00;;
23519;SDS011;11936;50.820;4.336;2023-02-01T08:43:55;24.35;;;5.53;;
23519;SDS011;11936;50.820;4.336;2023-02-01T08:46:22;30.80;;;6.10;;
23519;SDS011;11936;50.820;4.336;2023-02-01T08:48:48;21.75;;;6.20;;
23519;SDS011;11936;50.820;4.336;2023-02-01T08:51:14;26.42;;;5.68;;
23519;SDS011;11936;50.820;4.336;2023-02-01T08:53:41;24.33;;;5.00;;
23519;SDS011;11936;50.820;4.336;2023-02-01T08:56:08;23.88;;;5.70;;
23519;SDS011;11936;50.820;4.336;2023-02-01T08:58:35;20.23;;;4.83;;
23519;SDS011;11936;50.820;4.336;2023-02-01T09:01:04;20.95;;;5.35;;
23519;SDS011;11936;50.820;4.336;2023-02-01T09:03:31;20.38;;;4.90;;
23519;SDS011;11936;50.820;4.336;2023-02-01T09:06:04;20.10;;;4.88;;
23519;SDS011;11936;50.820;4.336;2023-02-01T09:08:33;24.55;;;5.43;;
23519;SDS011;11936;50.820;4.336;2023-02-01T09:11:00;23.25;;;4.82;;
23519;SDS011;11936;50.820;4.336;2023-02-01T09:13:26;17.63;;;4.97;;
23519;SDS011;11936;50.820;4.336;2023-02-01T09:15:52;28.25;;;5.53;;
23519;SDS011;11936;50.820;4.336;2023-02-01T09:18:18;27.15;;;6.32;;
23519;SDS011;11936;50.820;4.336;2023-02-01T09:20:44;20.35;;;5.53;;
23519;SDS011;11936;50.820;4.336;2023-02-01T09:23:10;24.48;;;4.45;;
23519;SDS011;11936;50.820;4.336;2023-02-01T09:25:36;23.30;;;4.55;;
23519;SDS011;11936;50.820;4.336;2023-02-01T09:28:03;20.58;;;4.90;;
23519;SDS011;11936;50.820;4.336;2023-02-01T09:30:31;14.97;;;4.90;;
23519;SDS011;11936;50.820;4.336;2023-02-01T09:32:57;20.73;;;5.35;;
23519;SDS011;11936;50.820;4.336;2023-02-01T09:35:22;24.00;;;5.22;;
23519;SDS011;11936;50.820;4.336;2023-02-01T09:37:48;21.60;;;5.55;;
23519;SDS011;11936;50.820;4.336;2023-02-01T09:40:14;27.48;;;5.38;;
23519;SDS011;11936;50.820;4.336;2023-02-01T09:45:33;25.23;;;5.50;;
23519;SDS011;11936;50.820;4.336;2023-02-01T09:50:56;24.77;;;5.50;;
23519;SDS011;11936;50.820;4.336;2023-02-01T09:53:36;31.80;;;5.30;;
23519;SDS011;11936;50.820;4.336;2023-02-01T10:04:36;23.83;;;5.45;;
23519;SDS011;11936;50.820;4.336;2023-02-01T10:19:56;25.60;;;5.55;;
23519;SDS011;11936;50.820;4.336;2023-02-01T10:28:15;30.77;;;4.18;;
23519;SDS011;11936;50.820;4.336;2023-02-01T10:30:46;11.85;;;3.40;;
23519;SDS011;11936;50.820;4.336;2023-02-01T10:33:17;20.85;;;3.83;;
23519;SDS011;11936;50.820;4.336;2023-02-01T10:35:49;16.77;;;5.05;;
23519;SDS011;11936;50.820;4.336;2023-02-01T10:38:29;16.67;;;4.45;;
23519;SDS011;11936;50.820;4.336;2023-02-01T10:41:12;12.65;;;4.03;;
23519;SDS011;11936;50.820;4.336;2023-02-01T10:43:54;15.48;;;4.05;;
23519;SDS011;11936;50.820;4.336;2023-02-01T10:46:23;17.77;;;3.83;;
23519;SDS011;11936;50.820;4.336;2023-02-01T10:48:52;19.42;;;3.45;;
23519;SDS011;11936;50.820;4.336;2023-02-01T10:51:37;22.15;;;4.07;;
23519;SDS011;11936;50.820;4.336;2023-02-01T10:54:16;12.55;;;3.83;;
23519;SDS011;11936;50.820;4.336;2023-02-01T10:56:54;19.58;;;4.55;;
23519;SDS011;11936;50.820;4.336;2023-02-01T11:02:52;20.60;;;3.67;;
23519;SDS011;11936;50.820;4.336;2023-02-01T11:05:21;16.63;;;4.00;;
23519;SDS011;11936;50.820;4.336;2023-02-01T11:08:14;14.45;;;4.18;;
23519;SDS011;11936;50.820;4.336;2023-02-01T11:10:47;19.30;;;3.47;;
23519;SDS011;11936;50.820;4.336;2023-02-01T11:13:21;19.15;;;4.07;;
23519;SDS011;11936;50.820;4.336;2023-02-01T11:15:58;15.70;;;3.05;;
23519;SDS011;11936;50.820;4.336;2023-02-01T11:18:30;14.27;;;3.63;;
23519;SDS011;11936;50.820;4.336;2023-02-01T11:21:00;16.42;;;3.45;;
23519;SDS011;11936;50.820;4.336;2023-02-01T11:23:26;20.58;;;3.63;;
23519;SDS011;11936;50.820;4.336;2023-02-01T11:25:59;14.15;;;2.67;;
23519;SDS011;11936;50.820;4.336;2023-02-01T11:28:37;14.55;;;3.42;;
23519;SDS011;11936;50.820;4.336;2023-02-01T11:31:15;13.95;;;3.30;;
23519;SDS011;11936;50.820;4.336;2023-02-01T11:33:44;16.15;;;3.95;;
23519;SDS011;11936;50.820;4.336;2023-02-01T11:36:15;16.05;;;3.67;;
23519;SDS011;11936;50.820;4.336;2023-02-01T11:39:25;26.65;;;3.95;;
23519;SDS011;11936;50.820;4.336;2023-02-01T11:44:26;12.65;;;4.00;;
23519;SDS011;11936;50.820;4.336;2023-02-01T11:47:22;16.50;;;4.35;;
23519;SDS011;11936;50.820;4.336;2023-02-01T11:50:05;27.70;;;3.55;;
23519;SDS011;11936;50.820;4.336;2023-02-01T12:00:55;17.88;;;3.47;;
23519;SDS011;11936;50.820;4.336;2023-02-01T12:06:12;8.13;;;2.78;;
23519;SDS011;11936;50.820;4.336;2023-02-01T12:09:21;12.85;;;3.15;;
23519;SDS011;11936;50.820;4.336;2023-02-01T12:11:59;14.05;;;3.25;;
23519;SDS011;11936;50.820;4.336;2023-02-01T12:18:01;19.13;;;3.30;;
23519;SDS011;11936;50.820;4.336;2023-02-01T12:35:02;15.65;;;3.53;;
23519;SDS011;11936;50.820;4.336;2023-02-01T12:43:11;12.00;;;2.90;;
23519;SDS011;11936;50.820;4.336;2023-02-01T12:45:48;11.20;;;1.90;;
23519;SDS011;11936;50.820;4.336;2023-02-01T12:48:32;7.90;;;3.00;;
23519;SDS011;11936;50.820;4.336;2023-02-01T12:51:14;11.55;;;2.50;;
23519;SDS011;11936;50.820;4.336;2023-02-01T12:56:26;12.90;;;2.28;;
23519;SDS011;11936;50.820;4.336;2023-02-01T13:01:38;11.98;;;2.90;;
23519;SDS011;11936;50.820;4.336;2023-02-01T13:07:09;16.98;;;3.20;;
23519;SDS011;11936;50.820;4.336;2023-02-01T13:09:42;9.20;;;2.55;;
23519;SDS011;11936;50.820;4.336;2023-02-01T13:15:04;12.80;;;2.67;;
23519;SDS011;11936;50.820;4.336;2023-02-01T13:17:42;10.18;;;2.58;;
23519;SDS011;11936;50.820;4.336;2023-02-01T13:20:17;8.32;;;2.40;;
23519;SDS011;11936;50.820;4.336;2023-02-01T13:25:47;9.15;;;2.67;;
23519;SDS011;11936;50.820;4.336;2023-02-01T13:28:25;13.80;;;2.80;;
23519;SDS011;11936;50.820;4.336;2023-02-01T13:39:27;15.15;;;2.83;;
23519;SDS011;11936;50.820;4.336;2023-02-01T13:42:04;11.48;;;2.65;;
23519;SDS011;11936;50.820;4.336;2023-02-01T13:44:51;11.95;;;2.67;;
23519;SDS011;11936;50.820;4.336;2023-02-01T13:47:32;10.23;;;2.67;;
23519;SDS011;11936;50.820;4.336;2023-02-01T13:53:34;11.88;;;2.78;;
23519;SDS011;11936;50.820;4.336;2023-02-01T13:55:56;11.43;;;2.63;;
23519;SDS011;11936;50.820;4.336;2023-02-01T13:58:31;8.02;;;2.17;;
23519;SDS011;11936;50.820;4.336;2023-02-01T14:03:46;14.90;;;2.80;;
23519;SDS011;11936;50.820;4.336;2023-02-01T14:06:38;8.00;;;2.17;;
23519;SDS011;11936;50.820;4.336;2023-02-01T14:11:37;12.18;;;3.17;;
23519;SDS011;11936;50.820;4.336;2023-02-01T14:16:42;15.45;;;3.38;;
23519;SDS011;11936;50.820;4.336;2023-02-01T14:21:49;10.43;;;2.88;;
23519;SDS011;11936;50.820;4.336;2023-02-01T14:24:33;11.57;;;2.97;;
23519;SDS011;11936;50.820;4.336;2023-02-01T14:27:02;8.70;;;2.30;;
23519;SDS011;11936;50.820;4.336;2023-02-01T14:29:53;20.65;;;2.95;;
23519;SDS011;11936;50.820;4.336;2023-02-01T14:32:25;11.90;;;2.35;;
23519;SDS011;11936;50.820;4.336;2023-02-01T14:34:57;13.38;;;2.35;;
23519;SDS011;11936;50.820;4.336;2023-02-01T14:39:57;18.45;;;3.45;;
23519;SDS011;11936;50.820;4.336;2023-02-01T14:58:00;11.93;;;3.08;;
23519;SDS011;11936;50.820;4.336;2023-02-01T15:00:30;12.07;;;3.00;;
23519;SDS011;11936;50.820;4.336;2023-02-01T15:05:54;12.43;;;2.40;;
23519;SDS011;11936;50.820;4.336;2023-02-01T15:08:24;9.98;;;2.75;;
23519;SDS011;11936;50.820;4.336;2023-02-01T15:10:53;12.48;;;2.80;;
23519;SDS011;11936;50.820;4.336;2023-02-01T15:13:21;11.35;;;3.17;;
23519;SDS011;11936;50.820;4.336;2023-02-01T15:16:10;17.30;;;3.17;;
23519;SDS011;11936;50.820;4.336;2023-02-01T15:18:38;18.67;;;2.85;;
23519;SDS011;11936;50.820;4.336;2023-02-01T15:21:04;11.95;;;3.03;;
23519;SDS011;11936;50.820;4.336;2023-02-01T15:23:31;10.73;;;2.40;;
23519;SDS011;11936;50.820;4.336;2023-02-01T15:25:57;18.48;;;2.80;;
23519;SDS011;11936;50.820;4.336;2023-02-01T15:28:24;9.90;;;2.88;;
23519;SDS011;11936;50.820;4.336;2023-02-01T15:31:01;17.80;;;3.40;;
23519;SDS011;11936;50.820;4.336;2023-02-01T15:33:30;16.55;;;3.00;;
23519;SDS011;11936;50.820;4.336;2023-02-01T15:41:00;12.75;;;3.15;;
23519;SDS011;11936;50.820;4.336;2023-02-01T15:46:13;10.52;;;2.75;;
23519;SDS011;11936;50.820;4.336;2023-02-01T15:48:48;19.40;;;3.42;;
23519;SDS011;11936;50.820;4.336;2023-02-01T15:51:17;11.13;;;2.97;;
23519;SDS011;11936;50.820;4.336;2023-02-01T15:53:45;17.10;;;3.38;;
23519;SDS011;11936;50.820;4.336;2023-02-01T15:56:13;23.10;;;4.25;;
23519;SDS011;11936;50.820;4.336;2023-02-01T15:58:40;15.73;;;3.53;;
23519;SDS011;11936;50.820;4.336;2023-02-01T16:01:10;13.52;;;3.85;;
23519;SDS011;11936;50.820;4.336;2023-02-01T16:03:39;10.98;;;3.47;;
23519;SDS011;11936;50.820;4.336;2023-02-01T16:06:11;15.00;;;3.03;;
23519;SDS011;11936;50.820;4.336;2023-02-01T16:08:55;10.68;;;3.38;;
23519;SDS011;11936;50.820;4.336;2023-02-01T16:11:30;16.48;;;3.60;;
23519;SDS011;11936;50.820;4.336;2023-02-01T16:13:58;10.35;;;3.05;;
23519;SDS011;11936;50.820;4.336;2023-02-01T16:16:25;14.85;;;3.38;;
23519;SDS011;11936;50.820;4.336;2023-02-01T16:18:51;12.45;;;3.72;;
23519;SDS011;11936;50.820;4.336;2023-02-01T16:21:17;10.57;;;3.05;;
23519;SDS011;11936;50.820;4.336;2023-02-01T16:23:43;18.30;;;3.83;;
23519;SDS011;11936;50.820;4.336;2023-02-01T16:26:08;16.15;;;5.32;;
23519;SDS011;11936;50.820;4.336;2023-02-01T16:28:35;17.60;;;3.60;;
23519;SDS011;11936;50.820;4.336;2023-02-01T16:31:01;14.10;;;3.88;;
23519;SDS011;11936;50.820;4.336;2023-02-01T16:33:27;20.42;;;4.35;;
23519;SDS011;11936;50.820;4.336;2023-02-01T16:35:54;20.52;;;3.28;;
23519;SDS011;11936;50.820;4.336;2023-02-01T16:38:25;16.02;;;4.00;;
23519;SDS011;11936;50.820;4.336;2023-02-01T16:40:51;19.73;;;4.13;;
23519;SDS011;11936;50.820;4.336;2023-02-01T16:43:23;16.80;;;3.17;;
23519;SDS011;11936;50.820;4.336;2023-02-01T16:45:53;17.75;;;4.07;;
23519;SDS011;11936;50.820;4.336;2023-02-01T16:48:24;17.75;;;4.30;;
23519;SDS011;11936;50.820;4.336;2023-02-01T16:51:01;12.93;;;4.10;;
23519;SDS011;11936;50.820;4.336;2023-02-01T16:53:31;13.23;;;3.47;;
23519;SDS011;11936;50.820;4.336;2023-02-01T16:55:57;17.73;;;3.72;;
23519;SDS011;11936;50.820;4.336;2023-02-01T16:58:23;16.98;;;4.13;;
23519;SDS011;11936;50.820;4.336;2023-02-01T17:00:50;11.98;;;3.60;;
23519;SDS011;11936;50.820;4.336;2023-02-01T17:03:17;18.70;;;3.78;;
23519;SDS011;11936;50.820;4.336;2023-02-01T17:05:45;27.40;;;4.07;;
23519;SDS011;11936;50.820;4.336;2023-02-01T17:08:13;14.95;;;3.50;;
23519;SDS011;11936;50.820;4.336;2023-02-01T17:10:44;16.02;;;3.75;;
23519;SDS011;11936;50.820;4.336;2023-02-01T17:13:14;16.25;;;3.70;;
23519;SDS011;11936;50.820;4.336;2023-02-01T17:15:42;16.13;;;3.80;;
23519;SDS011;11936;50.820;4.336;2023-02-01T17:18:15;20.00;;;3.72;;
23519;SDS011;11936;50.820;4.336;2023-02-01T17:20:43;14.87;;;3.80;;
23519;SDS011;11936;50.820;4.336;2023-02-01T17:23:09;15.70;;;4.50;;
23519;SDS011;11936;50.820;4.336;2023-02-01T17:25:34;16.50;;;4.57;;
23519;SDS011;11936;50.820;4.336;2023-02-01T17:28:00;16.23;;;4.82;;
23519;SDS011;11936;50.820;4.336;2023-02-01T17:30:26;14.70;;;4.22;;
23519;SDS011;11936;50.820;4.336;2023-02-01T17:32:52;19.98;;;4.00;;
23519;SDS011;11936;50.820;4.336;2023-02-01T17:35:20;22.02;;;3.83;;
23519;SDS011;11936;50.820;4.336;2023-02-01T17:37:48;21.42;;;4.45;;
23519;SDS011;11936;50.820;4.336;2023-02-01T17:40:15;17.70;;;4.47;;
23519;SDS011;11936;50.820;4.336;2023-02-01T17:42:41;15.10;;;3.78;;
23519;SDS011;11936;50.820;4.336;2023-02-01T17:48:00;25.67;;;5.35;;